sensor_id;sensor_type;location;lat;lon;timestamp;P1;durP1;ratioP1;P2;durP2;ratioP2
23451;SDS011;11898;51.130;6.780;2023-01-04T00:01:12;0.10;;;0.10;;
23451;SDS011;11898;51.130;6.780;2023-01-04T00:03:41;0.10;;;0.10;;
23451;SDS011;11898;51.130;6.780;2023-01-04T00:06:11;0.10;;;0.10;;
23451;SDS011;11898;51.130;6.780;2023-01-04T00:08:40;0.10;;;0.10;;
23451;SDS011;11898;51.130;6.780;2023-01-04T00:11:15;0.10;;;0.10;;
23451;SDS011;11898;51.130;6.780;2023-01-04T00:13:47;0.40;;;0.40;;
23451;SDS011;11898;51.130;6.780;2023-01-04T00:16:16;0.10;;;0.10;;
23451;SDS011;11898;51.130;6.780;2023-01-04T00:18:45;0.10;;;0.10;;
23451;SDS011;11898;51.130;6.780;2023-01-04T00:21:17;0.10;;;0.10;;
23451;SDS011;11898;51.130;6.780;2023-01-04T00:23:47;0.10;;;0.10;;
23451;SDS011;11898;51.130;6.780;2023-01-04T00:26:16;0.00;;;0.00;;
23451;SDS011;11898;51.130;6.780;2023-01-04T00:28:46;0.10;;;0.10;;
23451;SDS011;11898;51.130;6.780;2023-01-04T00:31:16;0.10;;;0.10;;
23451;SDS011;11898;51.130;6.780;2023-01-04T00:33:45;0.10;;;0.10;;
23451;SDS011;11898;51.130;6.780;2023-01-04T00:36:13;19.27;;;1.20;;
23451;SDS011;11898;51.130;6.780;2023-01-04T00:38:42;0.10;;;0.10;;
23451;SDS011;11898;51.130;6.780;2023-01-04T00:41:10;0.10;;;0.10;;
23451;SDS011;11898;51.130;6.780;2023-01-04T00:43:40;0.10;;;0.10;;
23451;SDS011;11898;51.130;6.780;2023-01-04T00:46:09;0.10;;;0.10;;
23451;SDS011;11898;51.130;6.780;2023-01-04T00:48:37;0.20;;;0.20;;
23451;SDS011;11898;51.130;6.780;2023-01-04T00:51:12;0.10;;;0.10;;
23451;SDS011;11898;51.130;6.780;2023-01-04T00:53:36;0.10;;;0.10;;
23451;SDS011;11898;51.130;6.780;2023-01-04T00:56:05;0.20;;;0.20;;
23451;SDS011;11898;51.130;6.780;2023-01-04T00:58:33;0.20;;;0.20;;
23451;SDS011;11898;51.130;6.780;2023-01-04T01:01:05;0.10;;;0.10;;
23451;SDS011;11898;51.130;6.780;2023-01-04T01:03:34;0.20;;;0.20;;
23451;SDS011;11898;51.130;6.780;2023-01-04T01:06:05;0.20;;;0.20;;
23451;SDS011;11898;51.130;6.780;2023-01-04T01:08:34;0.20;;;0.20;;
23451;SDS011;11898;51.130;6.780;2023-01-04T01:11:03;0.20;;;0.20;;
23451;SDS011;11898;51.130;6.780;2023-01-04T01:13:31;0.10;;;0.10;;
23451;SDS011;11898;51.130;6.780;2023-01-04T01:16:03;0.20;;;0.20;;
23451;SDS011;11898;51.130;6.780;2023-01-04T01:18:33;0.10;;;0.10;;
23451;SDS011;11898;51.130;6.780;2023-01-04T01:21:05;0.10;;;0.10;;
23451;SDS011;11898;51.130;6.780;2023-01-04T01:23:34;0.20;;;0.20;;
23451;SDS011;11898;51.130;6.780;2023-01-04T01:26:03;0.10;;;0.10;;
23451;SDS011;11898;51.130;6.780;2023-01-04T01:28:33;0.10;;;0.10;;
23451;SDS011;11898;51.130;6.780;2023-01-04T01:31:04;0.20;;;0.20;;
23451;SDS011;11898;51.130;6.780;2023-01-04T01:33:35;0.10;;;0.10;;
23451;SDS011;11898;51.130;6.780;2023-01-04T01:36:04;0.20;;;0.20;;
23451;SDS011;11898;51.130;6.780;2023-01-04T01:38:32;0.47;;;0.47;;
23451;SDS011;11898;51.130;6.780;2023-01-04T01:41:00;0.10;;;0.10;;
23451;SDS011;11898;51.130;6.780;2023-01-04T01:43:48;0.20;;;0.20;;
23451;SDS011;11898;51.130;6.780;2023-01-04T01:46:24;0.10;;;0.10;;
23451;SDS011;11898;51.130;6.780;2023-01-04T01:48:53;0.10;;;0.10;;
23451;SDS011;11898;51.130;6.780;2023-01-04T01:51:22;0.10;;;0.10;;
23451;SDS011;11898;51.130;6.780;2023-01-04T01:53:53;0.10;;;0.10;;
23451;SDS011;11898;51.130;6.780;2023-01-04T01:56:21;0.10;;;0.10;;
23451;SDS011;11898;51.130;6.780;2023-01-04T01:58:50;0.20;;;0.20;;
23451;SDS011;11898;51.130;6.780;2023-01-04T02:01:19;0.72;;;0.72;;
23451;SDS011;11898;51.130;6.780;2023-01-04T02:03:47;0.40;;;0.40;;
23451;SDS011;11898;51.130;6.780;2023-01-04T02:06:21;0.78;;;0.78;;
23451;SDS011;11898;51.130;6.780;2023-01-04T02:08:45;0.10;;;0.10;;
23451;SDS011;11898;51.130;6.780;2023-01-04T02:11:15;0.10;;;0.10;;
23451;SDS011;11898;51.130;6.780;2023-01-04T02:13:43;0.23;;;0.23;;
23451;SDS011;11898;51.130;6.780;2023-01-04T02:27:28;0.20;;;0.20;;
23451;SDS011;11898;51.130;6.780;2023-01-04T02:35:21;0.20;;;0.20;;
23451;SDS011;11898;51.130;6.780;2023-01-04T02:37:37;0.20;;;0.20;;
23451;SDS011;11898;51.130;6.780;2023-01-04T02:40:50;0.10;;;0.10;;
23451;SDS011;11898;51.130;6.780;2023-01-04T02:42:43;0.10;;;0.10;;
23451;SDS011;11898;51.130;6.780;2023-01-04T02:45:37;0.20;;;0.20;;
23451;SDS011;11898;51.130;6.780;2023-01-04T02:48:06;0.20;;;0.20;;
23451;SDS011;11898;51.130;6.780;2023-01-04T02:50:53;0.20;;;0.20;;
23451;SDS011;11898;51.130;6.780;2023-01-04T02:53:27;0.10;;;0.10;;
23451;SDS011;11898;51.130;6.780;2023-01-04T02:58:42;0.20;;;0.20;;
23451;SDS011;11898;51.130;6.780;2023-01-04T03:09:54;0.10;;;0.10;;
23451;SDS011;11898;51.130;6.780;2023-01-04T03:12:23;0.20;;;0.20;;
23451;SDS011;11898;51.130;6.780;2023-01-04T03:15:00;0.10;;;0.10;;
23451;SDS011;11898;51.130;6.780;2023-01-04T03:17:33;0.20;;;0.20;;
23451;SDS011;11898;51.130;6.780;2023-01-04T03:22:33;0.10;;;0.10;;
23451;SDS011;11898;51.130;6.780;2023-01-04T03:25:21;0.10;;;0.10;;
23451;SDS011;11898;51.130;6.780;2023-01-04T03:28:06;0.10;;;0.10;;
23451;SDS011;11898;51.130;6.780;2023-01-04T03:30:55;0.10;;;0.10;;
23451;SDS011;11898;51.130;6.780;2023-01-04T03:33:41;0.10;;;0.10;;
23451;SDS011;11898;51.130;6.780;2023-01-04T03:39:20;0.10;;;0.10;;
23451;SDS011;11898;51.130;6.780;2023-01-04T03:45:19;0.10;;;0.10;;
23451;SDS011;11898;51.130;6.780;2023-01-04T03:48:10;0.10;;;0.10;;
23451;SDS011;11898;51.130;6.780;2023-01-04T03:53:26;0.17;;;0.17;;
23451;SDS011;11898;51.130;6.780;2023-01-04T03:55:55;0.00;;;0.00;;
23451;SDS011;11898;51.130;6.780;2023-01-04T03:58:26;0.10;;;0.10;;
23451;SDS011;11898;51.130;6.780;2023-01-04T04:00:54;0.10;;;0.10;;
23451;SDS011;11898;51.130;6.780;2023-01-04T04:03:24;0.10;;;0.10;;
23451;SDS011;11898;51.130;6.780;2023-01-04T04:05:52;0.10;;;0.10;;
23451;SDS011;11898;51.130;6.780;2023-01-04T04:08:38;0.00;;;0.00;;
23451;SDS011;11898;51.130;6.780;2023-01-04T04:11:07;0.20;;;0.20;;
23451;SDS011;11898;51.130;6.780;2023-01-04T04:13:52;0.10;;;0.10;;
23451;SDS011;11898;51.130;6.780;2023-01-04T04:16:21;0.10;;;0.10;;
23451;SDS011;11898;51.130;6.780;2023-01-04T04:18:49;0.20;;;0.20;;
23451;SDS011;11898;51.130;6.780;2023-01-04T04:21:17;0.10;;;0.10;;
23451;SDS011;11898;51.130;6.780;2023-01-04T04:23:46;0.20;;;0.20;;
23451;SDS011;11898;51.130;6.780;2023-01-04T04:26:14;0.10;;;0.10;;
23451;SDS011;11898;51.130;6.780;2023-01-04T04:28:42;0.00;;;0.00;;
23451;SDS011;11898;51.130;6.780;2023-01-04T04:31:11;0.00;;;0.00;;
23451;SDS011;11898;51.130;6.780;2023-01-04T04:33:39;0.10;;;0.10;;
23451;SDS011;11898;51.130;6.780;2023-01-04T04:36:08;0.10;;;0.10;;
23451;SDS011;11898;51.130;6.780;2023-01-04T04:38:36;0.10;;;0.10;;
23451;SDS011;11898;51.130;6.780;2023-01-04T04:41:11;0.10;;;0.10;;
23451;SDS011;11898;51.130;6.780;2023-01-04T04:43:58;0.10;;;0.10;;
23451;SDS011;11898;51.130;6.780;2023-01-04T04:46:26;0.03;;;0.03;;
23451;SDS011;11898;51.130;6.780;2023-01-04T04:48:57;0.10;;;0.10;;
23451;SDS011;11898;51.130;6.780;2023-01-04T04:51:25;0.10;;;0.10;;
23451;SDS011;11898;51.130;6.780;2023-01-04T04:53:53;0.10;;;0.10;;
23451;SDS011;11898;51.130;6.780;2023-01-04T04:56:21;0.10;;;0.10;;
23451;SDS011;11898;51.130;6.780;2023-01-04T04:58:50;0.08;;;0.08;;
23451;SDS011;11898;51.130;6.780;2023-01-04T05:01:18;0.00;;;0.00;;
23451;SDS011;11898;51.130;6.780;2023-01-04T05:03:46;0.10;;;0.10;;
23451;SDS011;11898;51.130;6.780;2023-01-04T05:06:14;0.00;;;0.00;;
23451;SDS011;11898;51.130;6.780;2023-01-04T05:08:43;0.13;;;0.13;;
23451;SDS011;11898;51.130;6.780;2023-01-04T05:11:11;0.10;;;0.10;;
23451;SDS011;11898;51.130;6.780;2023-01-04T05:13:40;0.10;;;0.10;;
23451;SDS011;11898;51.130;6.780;2023-01-04T05:16:08;0.10;;;0.10;;
23451;SDS011;11898;51.130;6.780;2023-01-04T05:18:36;0.10;;;0.10;;
23451;SDS011;11898;51.130;6.780;2023-01-04T05:21:05;0.00;;;0.00;;
23451;SDS011;11898;51.130;6.780;2023-01-04T05:23:33;0.10;;;0.10;;
23451;SDS011;11898;51.130;6.780;2023-01-04T05:26:01;0.10;;;0.10;;
23451;SDS011;11898;51.130;6.780;2023-01-04T05:28:30;0.10;;;0.10;;
23451;SDS011;11898;51.130;6.780;2023-01-04T05:30:58;0.10;;;0.10;;
23451;SDS011;11898;51.130;6.780;2023-01-04T05:33:27;0.10;;;0.10;;
23451;SDS011;11898;51.130;6.780;2023-01-04T05:35:57;0.10;;;0.10;;
23451;SDS011;11898;51.130;6.780;2023-01-04T05:38:25;0.10;;;0.10;;
23451;SDS011;11898;51.130;6.780;2023-01-04T05:40:53;0.10;;;0.10;;
23451;SDS011;11898;51.130;6.780;2023-01-04T05:43:22;0.10;;;0.10;;
23451;SDS011;11898;51.130;6.780;2023-01-04T05:45:54;0.10;;;0.10;;
23451;SDS011;11898;51.130;6.780;2023-01-04T05:48:23;0.10;;;0.10;;
23451;SDS011;11898;51.130;6.780;2023-01-04T05:50:52;0.10;;;0.10;;
23451;SDS011;11898;51.130;6.780;2023-01-04T05:53:20;0.10;;;0.10;;
23451;SDS011;11898;51.130;6.780;2023-01-04T05:55:48;0.10;;;0.10;;
23451;SDS011;11898;51.130;6.780;2023-01-04T05:58:17;0.10;;;0.10;;
23451;SDS011;11898;51.130;6.780;2023-01-04T06:00:45;0.10;;;0.10;;
23451;SDS011;11898;51.130;6.780;2023-01-04T06:03:13;0.10;;;0.10;;
23451;SDS011;11898;51.130;6.780;2023-01-04T06:05:42;0.00;;;0.00;;
23451;SDS011;11898;51.130;6.780;2023-01-04T06:08:10;0.00;;;0.00;;
23451;SDS011;11898;51.130;6.780;2023-01-04T06:10:39;0.10;;;0.10;;
23451;SDS011;11898;51.130;6.780;2023-01-04T06:13:08;0.10;;;0.10;;
23451;SDS011;11898;51.130;6.780;2023-01-04T06:15:36;0.10;;;0.10;;
23451;SDS011;11898;51.130;6.780;2023-01-04T06:18:06;0.10;;;0.10;;
23451;SDS011;11898;51.130;6.780;2023-01-04T06:20:36;0.10;;;0.10;;
23451;SDS011;11898;51.130;6.780;2023-01-04T06:23:04;0.10;;;0.10;;
23451;SDS011;11898;51.130;6.780;2023-01-04T06:25:32;0.10;;;0.10;;
23451;SDS011;11898;51.130;6.780;2023-01-04T06:28:00;0.10;;;0.10;;
23451;SDS011;11898;51.130;6.780;2023-01-04T06:30:29;0.10;;;0.10;;
23451;SDS011;11898;51.130;6.780;2023-01-04T06:32:57;0.00;;;0.00;;
23451;SDS011;11898;51.130;6.780;2023-01-04T06:35:25;0.17;;;0.17;;
23451;SDS011;11898;51.130;6.780;2023-01-04T06:37:54;0.10;;;0.10;;
23451;SDS011;11898;51.130;6.780;2023-01-04T06:40:22;0.00;;;0.00;;
23451;SDS011;11898;51.130;6.780;2023-01-04T06:42:50;0.00;;;0.00;;
23451;SDS011;11898;51.130;6.780;2023-01-04T06:45:18;0.00;;;0.00;;
23451;SDS011;11898;51.130;6.780;2023-01-04T06:47:47;0.10;;;0.10;;
23451;SDS011;11898;51.130;6.780;2023-01-04T06:50:15;0.10;;;0.10;;
23451;SDS011;11898;51.130;6.780;2023-01-04T06:52:43;0.10;;;0.10;;
23451;SDS011;11898;51.130;6.780;2023-01-04T06:55:11;0.10;;;0.10;;
23451;SDS011;11898;51.130;6.780;2023-01-04T06:57:39;0.10;;;0.10;;
23451;SDS011;11898;51.130;6.780;2023-01-04T07:00:08;0.10;;;0.10;;
23451;SDS011;11898;51.130;6.780;2023-01-04T07:02:36;0.05;;;0.05;;
23451;SDS011;11898;51.130;6.780;2023-01-04T07:05:06;0.10;;;0.10;;
23451;SDS011;11898;51.130;6.780;2023-01-04T07:07:35;0.10;;;0.10;;
23451;SDS011;11898;51.130;6.780;2023-01-04T07:10:03;0.10;;;0.10;;
23451;SDS011;11898;51.130;6.780;2023-01-04T07:12:33;0.00;;;0.00;;
23451;SDS011;11898;51.130;6.780;2023-01-04T07:15:01;0.10;;;0.10;;
23451;SDS011;11898;51.130;6.780;2023-01-04T07:17:31;0.10;;;0.10;;
23451;SDS011;11898;51.130;6.780;2023-01-04T07:20:00;0.13;;;0.13;;
23451;SDS011;11898;51.130;6.780;2023-01-04T07:22:28;0.20;;;0.20;;
23451;SDS011;11898;51.130;6.780;2023-01-04T07:24:56;0.10;;;0.10;;
23451;SDS011;11898;51.130;6.780;2023-01-04T07:27:24;0.10;;;0.10;;
23451;SDS011;11898;51.130;6.780;2023-01-04T07:29:53;0.10;;;0.10;;
23451;SDS011;11898;51.130;6.780;2023-01-04T07:32:21;0.00;;;0.00;;
23451;SDS011;11898;51.130;6.780;2023-01-04T07:34:49;0.00;;;0.00;;
23451;SDS011;11898;51.130;6.780;2023-01-04T07:37:18;0.10;;;0.10;;
23451;SDS011;11898;51.130;6.780;2023-01-04T07:39:46;0.10;;;0.10;;
23451;SDS011;11898;51.130;6.780;2023-01-04T07:42:15;0.13;;;0.13;;
23451;SDS011;11898;51.130;6.780;2023-01-04T07:44:45;0.10;;;0.10;;
23451;SDS011;11898;51.130;6.780;2023-01-04T07:47:13;0.10;;;0.10;;
23451;SDS011;11898;51.130;6.780;2023-01-04T07:49:41;0.10;;;0.10;;
23451;SDS011;11898;51.130;6.780;2023-01-04T07:52:10;0.40;;;0.40;;
23451;SDS011;11898;51.130;6.780;2023-01-04T07:54:38;0.00;;;0.00;;
23451;SDS011;11898;51.130;6.780;2023-01-04T07:57:06;0.00;;;0.00;;
23451;SDS011;11898;51.130;6.780;2023-01-04T07:59:35;0.10;;;0.10;;
23451;SDS011;11898;51.130;6.780;2023-01-04T08:02:03;0.00;;;0.00;;
23451;SDS011;11898;51.130;6.780;2023-01-04T08:04:31;0.10;;;0.10;;
23451;SDS011;11898;51.130;6.780;2023-01-04T08:07:01;0.10;;;0.10;;
23451;SDS011;11898;51.130;6.780;2023-01-04T08:09:29;0.03;;;0.03;;
23451;SDS011;11898;51.130;6.780;2023-01-04T08:11:58;0.00;;;0.00;;
23451;SDS011;11898;51.130;6.780;2023-01-04T08:14:26;0.00;;;0.00;;
23451;SDS011;11898;51.130;6.780;2023-01-04T08:16:54;0.10;;;0.10;;
23451;SDS011;11898;51.130;6.780;2023-01-04T08:19:22;0.00;;;0.00;;
23451;SDS011;11898;51.130;6.780;2023-01-04T08:21:51;0.00;;;0.00;;
23451;SDS011;11898;51.130;6.780;2023-01-04T08:24:19;0.00;;;0.00;;
23451;SDS011;11898;51.130;6.780;2023-01-04T08:26:47;0.10;;;0.10;;
23451;SDS011;11898;51.130;6.780;2023-01-04T08:29:15;0.10;;;0.10;;
23451;SDS011;11898;51.130;6.780;2023-01-04T08:31:44;0.05;;;0.05;;
23451;SDS011;11898;51.130;6.780;2023-01-04T08:34:12;0.10;;;0.10;;
23451;SDS011;11898;51.130;6.780;2023-01-04T08:36:44;0.20;;;0.20;;
23451;SDS011;11898;51.130;6.780;2023-01-04T08:39:13;0.00;;;0.00;;
23451;SDS011;11898;51.130;6.780;2023-01-04T08:41:41;0.10;;;0.10;;
23451;SDS011;11898;51.130;6.780;2023-01-04T08:44:22;0.10;;;0.10;;
23451;SDS011;11898;51.130;6.780;2023-01-04T08:46:51;0.10;;;0.10;;
23451;SDS011;11898;51.130;6.780;2023-01-04T08:49:20;0.10;;;0.10;;
23451;SDS011;11898;51.130;6.780;2023-01-04T08:51:48;0.10;;;0.10;;
23451;SDS011;11898;51.130;6.780;2023-01-04T08:54:17;0.00;;;0.00;;
23451;SDS011;11898;51.130;6.780;2023-01-04T08:56:45;0.10;;;0.10;;
23451;SDS011;11898;51.130;6.780;2023-01-04T08:59:13;0.00;;;0.00;;
23451;SDS011;11898;51.130;6.780;2023-01-04T09:01:41;0.10;;;0.10;;
23451;SDS011;11898;51.130;6.780;2023-01-04T09:04:10;0.00;;;0.00;;
23451;SDS011;11898;51.130;6.780;2023-01-04T09:06:38;0.00;;;0.00;;
23451;SDS011;11898;51.130;6.780;2023-01-04T09:09:06;0.00;;;0.00;;
23451;SDS011;11898;51.130;6.780;2023-01-04T09:11:36;0.10;;;0.10;;
23451;SDS011;11898;51.130;6.780;2023-01-04T09:14:04;0.00;;;0.00;;
23451;SDS011;11898;51.130;6.780;2023-01-04T09:16:36;0.05;;;0.05;;
23451;SDS011;11898;51.130;6.780;2023-01-04T09:19:05;0.10;;;0.10;;
23451;SDS011;11898;51.130;6.780;2023-01-04T09:21:34;0.00;;;0.00;;
23451;SDS011;11898;51.130;6.780;2023-01-04T09:24:02;0.00;;;0.00;;
23451;SDS011;11898;51.130;6.780;2023-01-04T09:26:31;0.15;;;0.15;;
23451;SDS011;11898;51.130;6.780;2023-01-04T09:28:59;0.10;;;0.10;;
23451;SDS011;11898;51.130;6.780;2023-01-04T09:31:27;0.10;;;0.10;;
23451;SDS011;11898;51.130;6.780;2023-01-04T09:33:56;0.10;;;0.10;;
23451;SDS011;11898;51.130;6.780;2023-01-04T09:36:26;0.10;;;0.10;;
23451;SDS011;11898;51.130;6.780;2023-01-04T09:38:55;0.30;;;0.30;;
23451;SDS011;11898;51.130;6.780;2023-01-04T09:41:27;0.10;;;0.10;;
23451;SDS011;11898;51.130;6.780;2023-01-04T09:46:28;0.10;;;0.10;;
23451;SDS011;11898;51.130;6.780;2023-01-04T09:51:24;0.10;;;0.10;;
23451;SDS011;11898;51.130;6.780;2023-01-04T09:53:57;0.10;;;0.10;;
23451;SDS011;11898;51.130;6.780;2023-01-04T09:58:53;0.35;;;0.35;;
23451;SDS011;11898;51.130;6.780;2023-01-04T10:01:23;0.00;;;0.00;;
23451;SDS011;11898;51.130;6.780;2023-01-04T10:06:25;0.00;;;0.00;;
23451;SDS011;11898;51.130;6.780;2023-01-04T10:08:54;0.00;;;0.00;;
23451;SDS011;11898;51.130;6.780;2023-01-04T10:11:39;0.10;;;0.10;;
23451;SDS011;11898;51.130;6.780;2023-01-04T10:14:12;0.05;;;0.05;;
23451;SDS011;11898;51.130;6.780;2023-01-04T10:16:45;0.10;;;0.10;;
23451;SDS011;11898;51.130;6.780;2023-01-04T10:19:26;0.00;;;0.00;;
23451;SDS011;11898;51.130;6.780;2023-01-04T10:21:59;0.10;;;0.10;;
23451;SDS011;11898;51.130;6.780;2023-01-04T10:24:37;0.10;;;0.10;;
23451;SDS011;11898;51.130;6.780;2023-01-04T10:27:16;0.10;;;0.10;;
23451;SDS011;11898;51.130;6.780;2023-01-04T10:32:30;0.65;;;0.65;;
23451;SDS011;11898;51.130;6.780;2023-01-04T10:34:48;0.10;;;0.10;;
23451;SDS011;11898;51.130;6.780;2023-01-04T10:37:18;0.00;;;0.00;;
23451;SDS011;11898;51.130;6.780;2023-01-04T10:39:51;0.00;;;0.00;;
23451;SDS011;11898;51.130;6.780;2023-01-04T10:45:07;0.10;;;0.10;;
23451;SDS011;11898;51.130;6.780;2023-01-04T10:47:44;0.10;;;0.10;;
23451;SDS011;11898;51.130;6.780;2023-01-04T10:50:24;0.10;;;0.10;;
23451;SDS011;11898;51.130;6.780;2023-01-04T10:53:01;0.10;;;0.10;;
23451;SDS011;11898;51.130;6.780;2023-01-04T10:57:58;0.00;;;0.00;;
23451;SDS011;11898;51.130;6.780;2023-01-04T11:00:34;0.00;;;0.00;;
23451;SDS011;11898;51.130;6.780;2023-01-04T11:03:02;0.00;;;0.00;;
23451;SDS011;11898;51.130;6.780;2023-01-04T11:05:39;0.10;;;0.10;;
23451;SDS011;11898;51.130;6.780;2023-01-04T11:10:51;0.10;;;0.10;;
23451;SDS011;11898;51.130;6.780;2023-01-04T11:13:19;0.10;;;0.10;;
23451;SDS011;11898;51.130;6.780;2023-01-04T11:15:47;0.10;;;0.10;;
23451;SDS011;11898;51.130;6.780;2023-01-04T11:18:16;0.10;;;0.10;;
23451;SDS011;11898;51.130;6.780;2023-01-04T11:20:44;0.10;;;0.10;;
23451;SDS011;11898;51.130;6.780;2023-01-04T11:23:13;0.10;;;0.10;;
23451;SDS011;11898;51.130;6.780;2023-01-04T11:25:48;0.10;;;0.10;;
23451;SDS011;11898;51.130;6.780;2023-01-04T11:28:40;0.00;;;0.00;;
23451;SDS011;11898;51.130;6.780;2023-01-04T11:33:56;0.10;;;0.10;;
23451;SDS011;11898;51.130;6.780;2023-01-04T11:39:00;0.10;;;0.10;;
23451;SDS011;11898;51.130;6.780;2023-01-04T11:41:29;0.10;;;0.10;;
23451;SDS011;11898;51.130;6.780;2023-01-04T11:46:27;0.10;;;0.10;;
23451;SDS011;11898;51.130;6.780;2023-01-04T11:48:55;0.00;;;0.00;;
23451;SDS011;11898;51.130;6.780;2023-01-04T11:54:00;0.10;;;0.10;;
23451;SDS011;11898;51.130;6.780;2023-01-04T11:59:13;0.10;;;0.10;;
23451;SDS011;11898;51.130;6.780;2023-01-04T12:01:44;0.00;;;0.00;;
23451;SDS011;11898;51.130;6.780;2023-01-04T12:04:14;0.30;;;0.30;;
23451;SDS011;11898;51.130;6.780;2023-01-04T12:06:55;0.10;;;0.10;;
23451;SDS011;11898;51.130;6.780;2023-01-04T12:09:24;0.03;;;0.03;;
23451;SDS011;11898;51.130;6.780;2023-01-04T12:11:58;0.00;;;0.00;;
23451;SDS011;11898;51.130;6.780;2023-01-04T12:14:26;0.00;;;0.00;;
23451;SDS011;11898;51.130;6.780;2023-01-04T12:19:22;0.00;;;0.00;;
23451;SDS011;11898;51.130;6.780;2023-01-04T12:21:52;0.10;;;0.10;;
23451;SDS011;11898;51.130;6.780;2023-01-04T12:24:22;0.00;;;0.00;;
23451;SDS011;11898;51.130;6.780;2023-01-04T12:26:50;0.10;;;0.10;;
23451;SDS011;11898;51.130;6.780;2023-01-04T12:37:01;0.00;;;0.00;;
23451;SDS011;11898;51.130;6.780;2023-01-04T12:54:58;0.10;;;0.10;;
23451;SDS011;11898;51.130;6.780;2023-01-04T13:02:35;0.10;;;0.10;;
23451;SDS011;11898;51.130;6.780;2023-01-04T13:07:49;0.10;;;0.10;;
23451;SDS011;11898;51.130;6.780;2023-01-04T13:10:33;0.10;;;0.10;;
23451;SDS011;11898;51.130;6.780;2023-01-04T13:20:48;0.00;;;0.00;;
23451;SDS011;11898;51.130;6.780;2023-01-04T13:23:17;0.10;;;0.10;;
23451;SDS011;11898;51.130;6.780;2023-01-04T13:25:45;0.10;;;0.10;;
23451;SDS011;11898;51.130;6.780;2023-01-04T13:28:17;0.00;;;0.00;;
23451;SDS011;11898;51.130;6.780;2023-01-04T13:30:46;0.10;;;0.10;;
23451;SDS011;11898;51.130;6.780;2023-01-04T13:36:20;3.47;;;2.47;;
23451;SDS011;11898;51.130;6.780;2023-01-04T13:38:22;4.45;;;3.00;;
23451;SDS011;11898;51.130;6.780;2023-01-04T13:40:50;4.40;;;2.42;;
23451;SDS011;11898;51.130;6.780;2023-01-04T13:46:12;3.60;;;2.60;;
23451;SDS011;11898;51.130;6.780;2023-01-04T13:48:44;3.50;;;2.50;;
23451;SDS011;11898;51.130;6.780;2023-01-04T13:51:16;4.20;;;2.30;;
23451;SDS011;11898;51.130;6.780;2023-01-04T13:53:54;4.75;;;2.62;;
23451;SDS011;11898;51.130;6.780;2023-01-04T13:56:29;5.37;;;2.22;;
23451;SDS011;11898;51.130;6.780;2023-01-04T13:58:59;2.90;;;2.10;;
23451;SDS011;11898;51.130;6.780;2023-01-04T14:01:40;3.55;;;2.60;;
23451;SDS011;11898;51.130;6.780;2023-01-04T14:04:10;5.12;;;2.08;;
23451;SDS011;11898;51.130;6.780;2023-01-04T14:06:50;3.17;;;2.40;;
23451;SDS011;11898;51.130;6.780;2023-01-04T14:09:21;2.83;;;1.77;;
23451;SDS011;11898;51.130;6.780;2023-01-04T14:11:54;2.55;;;1.90;;
23451;SDS011;11898;51.130;6.780;2023-01-04T14:24:53;2.33;;;1.60;;
23451;SDS011;11898;51.130;6.780;2023-01-04T14:27:30;1.95;;;1.67;;
23451;SDS011;11898;51.130;6.780;2023-01-04T14:29:58;4.17;;;2.35;;
23451;SDS011;11898;51.130;6.780;2023-01-04T14:32:27;3.52;;;2.45;;
23451;SDS011;11898;51.130;6.780;2023-01-04T14:34:55;1.98;;;1.77;;
23451;SDS011;11898;51.130;6.780;2023-01-04T14:37:23;3.50;;;2.20;;
23451;SDS011;11898;51.130;6.780;2023-01-04T14:39:52;2.47;;;2.10;;
23451;SDS011;11898;51.130;6.780;2023-01-04T14:42:24;3.45;;;2.22;;
23451;SDS011;11898;51.130;6.780;2023-01-04T14:44:53;2.10;;;1.90;;
23451;SDS011;11898;51.130;6.780;2023-01-04T14:47:21;3.42;;;2.58;;
23451;SDS011;11898;51.130;6.780;2023-01-04T14:49:50;3.62;;;2.77;;
23451;SDS011;11898;51.130;6.780;2023-01-04T14:52:20;4.65;;;3.05;;
23451;SDS011;11898;51.130;6.780;2023-01-04T14:54:49;4.80;;;2.90;;
23451;SDS011;11898;51.130;6.780;2023-01-04T14:57:17;4.28;;;2.42;;
23451;SDS011;11898;51.130;6.780;2023-01-04T14:59:47;5.72;;;3.85;;
23451;SDS011;11898;51.130;6.780;2023-01-04T15:02:16;5.60;;;3.40;;
23451;SDS011;11898;51.130;6.780;2023-01-04T15:04:45;5.35;;;3.83;;
23451;SDS011;11898;51.130;6.780;2023-01-04T15:10:00;5.40;;;3.80;;
23451;SDS011;11898;51.130;6.780;2023-01-04T15:12:28;8.28;;;4.05;;
23451;SDS011;11898;51.130;6.780;2023-01-04T15:14:57;8.93;;;4.70;;
23451;SDS011;11898;51.130;6.780;2023-01-04T15:17:25;7.40;;;4.60;;
23451;SDS011;11898;51.130;6.780;2023-01-04T15:19:53;8.70;;;5.50;;
23451;SDS011;11898;51.130;6.780;2023-01-04T15:22:21;9.85;;;4.30;;
23451;SDS011;11898;51.130;6.780;2023-01-04T15:24:50;11.85;;;5.70;;
23451;SDS011;11898;51.130;6.780;2023-01-04T15:27:18;8.40;;;4.72;;
23451;SDS011;11898;51.130;6.780;2023-01-04T15:29:48;10.32;;;4.92;;
23451;SDS011;11898;51.130;6.780;2023-01-04T15:32:16;9.13;;;4.92;;
23451;SDS011;11898;51.130;6.780;2023-01-04T15:34:45;9.80;;;4.37;;
23451;SDS011;11898;51.130;6.780;2023-01-04T15:37:14;7.92;;;4.83;;
23451;SDS011;11898;51.130;6.780;2023-01-04T15:39:44;11.25;;;5.33;;
23451;SDS011;11898;51.130;6.780;2023-01-04T15:42:12;8.25;;;5.08;;
23451;SDS011;11898;51.130;6.780;2023-01-04T15:44:58;9.50;;;4.92;;
23451;SDS011;11898;51.130;6.780;2023-01-04T15:47:29;7.97;;;4.67;;
23451;SDS011;11898;51.130;6.780;2023-01-04T15:49:58;8.50;;;4.67;;
23451;SDS011;11898;51.130;6.780;2023-01-04T15:52:26;6.62;;;4.45;;
23451;SDS011;11898;51.130;6.780;2023-01-04T15:54:54;8.03;;;5.42;;
23451;SDS011;11898;51.130;6.780;2023-01-04T15:57:23;9.13;;;4.42;;
23451;SDS011;11898;51.130;6.780;2023-01-04T15:59:51;8.58;;;4.72;;
23451;SDS011;11898;51.130;6.780;2023-01-04T16:02:19;7.33;;;5.30;;
23451;SDS011;11898;51.130;6.780;2023-01-04T16:04:48;7.28;;;3.90;;
23451;SDS011;11898;51.130;6.780;2023-01-04T16:07:16;8.25;;;4.20;;
23451;SDS011;11898;51.130;6.780;2023-01-04T16:09:45;7.15;;;4.00;;
23451;SDS011;11898;51.130;6.780;2023-01-04T16:12:13;6.12;;;3.80;;
23451;SDS011;11898;51.130;6.780;2023-01-04T16:15:00;8.20;;;5.37;;
23451;SDS011;11898;51.130;6.780;2023-01-04T16:17:28;7.12;;;4.35;;
23451;SDS011;11898;51.130;6.780;2023-01-04T16:19:56;9.10;;;4.97;;
23451;SDS011;11898;51.130;6.780;2023-01-04T16:22:25;9.25;;;4.85;;
23451;SDS011;11898;51.130;6.780;2023-01-04T16:24:53;9.80;;;5.10;;
23451;SDS011;11898;51.130;6.780;2023-01-04T16:27:23;12.25;;;5.97;;
23451;SDS011;11898;51.130;6.780;2023-01-04T16:29:52;9.15;;;5.62;;
23451;SDS011;11898;51.130;6.780;2023-01-04T16:32:21;12.13;;;6.53;;
23451;SDS011;11898;51.130;6.780;2023-01-04T16:34:49;12.68;;;7.12;;
23451;SDS011;11898;51.130;6.780;2023-01-04T16:37:18;12.07;;;6.90;;
23451;SDS011;11898;51.130;6.780;2023-01-04T16:39:49;11.55;;;7.08;;
23451;SDS011;11898;51.130;6.780;2023-01-04T16:42:19;18.65;;;7.70;;
23451;SDS011;11898;51.130;6.780;2023-01-04T16:44:47;14.60;;;7.42;;
23451;SDS011;11898;51.130;6.780;2023-01-04T16:47:15;15.88;;;7.03;;
23451;SDS011;11898;51.130;6.780;2023-01-04T16:49:44;13.43;;;6.83;;
23451;SDS011;11898;51.130;6.780;2023-01-04T16:52:12;11.70;;;6.83;;
23451;SDS011;11898;51.130;6.780;2023-01-04T16:54:40;13.30;;;6.60;;
23451;SDS011;11898;51.130;6.780;2023-01-04T16:57:08;12.50;;;6.92;;
23451;SDS011;11898;51.130;6.780;2023-01-04T16:59:37;13.55;;;6.55;;
23451;SDS011;11898;51.130;6.780;2023-01-04T17:02:05;11.35;;;7.03;;
23451;SDS011;11898;51.130;6.780;2023-01-04T17:04:33;14.00;;;6.40;;
23451;SDS011;11898;51.130;6.780;2023-01-04T17:07:01;13.50;;;6.55;;
23451;SDS011;11898;51.130;6.780;2023-01-04T17:09:31;13.15;;;6.17;;
23451;SDS011;11898;51.130;6.780;2023-01-04T17:11:59;11.68;;;5.40;;
23451;SDS011;11898;51.130;6.780;2023-01-04T17:14:30;15.50;;;5.78;;
23451;SDS011;11898;51.130;6.780;2023-01-04T17:16:59;15.65;;;5.60;;
23451;SDS011;11898;51.130;6.780;2023-01-04T17:19:29;15.65;;;5.83;;